Time;durP1;ratioP1;P1;durP2;ratioP2;P2;SDS_P1;SDS_P2;PMS_P1;PMS_P2;Temp;Humidity;BMP_temperature;BMP_pressure;BME280_temperature;BME280_humidity;BME280_pressure;Samples;Min_cycle;Max_cycle;Signal;HPM_P1;HPM_P2
2023/02/16 00:01:43;;;;;;;17.20;9.43;;;;;;;;;;4999462;28;20026;-69
2023/02/16 00:04:28;;;;;;;18.77;9.65;;;;;;;;;;5006631;28;20088;-74
2023/02/16 00:06:54;;;;;;;19.73;9.82;;;;;;;;;;4999880;28;20060;-69
2023/02/16 00:09:20;;;;;;;19.35;9.43;;;;;;;;;;5002658;28;20570;-69
2023/02/16 00:14:32;;;;;;;23.48;11.18;;;;;;;;;;5003667;28;20030;-69
2023/02/16 00:16:58;;;;;;;19.77;9.95;;;;;;;;;;5006670;28;20018;-69
2023/02/16 00:19:23;;;;;;;20.13;10.38;;;;;;;;;;4997584;28;20214;-69
2023/02/16 00:21:49;;;;;;;16.03;8.87;;;;;;;;;;5009807;28;20029;-69
2023/02/16 00:24:15;;;;;;;17.30;8.50;;;;;;;;;;5005936;28;20296;-72
2023/02/16 00:26:40;;;;;;;18.70;9.30;;;;;;;;;;5002859;28;20424;-72
2023/02/16 00:29:05;;;;;;;15.20;8.70;;;;;;;;;;5005713;28;20445;-70
2023/02/16 00:31:31;;;;;;;18.48;9.10;;;;;;;;;;5001910;28;20018;-70
2023/02/16 00:33:56;;;;;;;16.95;8.20;;;;;;;;;;5006243;28;20106;-70
2023/02/16 00:36:21;;;;;;;17.77;8.73;;;;;;;;;;5003954;28;20046;-70
2023/02/16 00:38:47;;;;;;;22.20;10.67;;;;;;;;;;5004905;28;20387;-75
2023/02/16 00:44:25;;;;;;;19.20;9.77;;;;;;;;;;5000575;28;20489;-75
2023/02/16 00:46:50;;;;;;;18.58;9.27;;;;;;;;;;4995316;28;20421;-75
2023/02/16 00:49:19;;;;;;;20.03;9.50;;;;;;;;;;5005689;28;20038;-74
2023/02/16 00:51:44;;;;;;;21.97;10.20;;;;;;;;;;5002994;28;20285;-75
2023/02/16 00:54:09;;;;;;;21.63;9.23;;;;;;;;;;5005172;28;20368;-74
2023/02/16 00:56:35;;;;;;;15.45;9.15;;;;;;;;;;4998507;28;20018;-74
2023/02/16 00:59:01;;;;;;;16.13;8.75;;;;;;;;;;5004034;28;20026;-72
2023/02/16 01:01:28;;;;;;;14.75;8.77;;;;;;;;;;5003047;28;20083;-66
2023/02/16 01:03:53;;;;;;;15.20;8.88;;;;;;;;;;5004056;28;20240;-71
2023/02/16 01:11:57;;;;;;;21.42;7.97;;;;;;;;;;5004772;28;20030;-69
2023/02/16 01:14:23;;;;;;;13.32;8.38;;;;;;;;;;5002437;28;20076;-70
2023/02/16 01:16:48;;;;;;;18.02;8.30;;;;;;;;;;5003354;28;20611;-70
2023/02/16 01:19:13;;;;;;;18.57;9.17;;;;;;;;;;5004214;28;20263;-71
2023/02/16 01:21:39;;;;;;;16.48;8.55;;;;;;;;;;5009513;28;20279;-69
2023/02/16 01:24:04;;;;;;;16.60;8.45;;;;;;;;;;5006545;28;20030;-69
2023/02/16 01:26:31;;;;;;;19.05;8.85;;;;;;;;;;5011399;28;20050;-72
2023/02/16 01:28:56;;;;;;;15.45;8.23;;;;;;;;;;5003370;28;20021;-69
2023/02/16 01:31:21;;;;;;;16.70;8.85;;;;;;;;;;5008175;28;20026;-70
2023/02/16 01:33:46;;;;;;;20.33;8.17;;;;;;;;;;5008735;28;20111;-71
2023/02/16 01:36:26;;;;;;;16.77;7.93;;;;;;;;;;5005657;28;20371;-70
2023/02/16 01:38:52;;;;;;;15.13;8.20;;;;;;;;;;5006129;28;20273;-74
2023/02/16 01:41:37;;;;;;;14.93;8.27;;;;;;;;;;5014859;28;20025;-74
2023/02/16 01:44:04;;;;;;;15.55;8.65;;;;;;;;;;5007634;28;20289;-76
2023/02/16 01:46:38;;;;;;;17.33;7.63;;;;;;;;;;5008141;28;20480;-75
2023/02/16 01:49:03;;;;;;;14.73;8.05;;;;;;;;;;5006291;28;20536;-74
2023/02/16 01:51:34;;;;;;;17.35;7.80;;;;;;;;;;5011079;28;20033;-75
2023/02/16 01:54:06;;;;;;;16.38;8.05;;;;;;;;;;5012612;28;20468;-68
2023/02/16 01:56:34;;;;;;;17.63;8.27;;;;;;;;;;5011597;28;20048;-73
2023/02/16 01:59:02;;;;;;;16.70;8.02;;;;;;;;;;5016554;28;20115;-73
2023/02/16 02:01:36;;;;;;;16.60;8.52;;;;;;;;;;5008405;28;20133;-73
2023/02/16 02:06:51;;;;;;;13.05;7.10;;;;;;;;;;5006008;28;20041;-72
2023/02/16 02:09:21;;;;;;;12.53;7.00;;;;;;;;;;5008480;28;20027;-72
2023/02/16 02:11:56;;;;;;;20.60;8.10;;;;;;;;;;5001630;28;20331;-68
2023/02/16 02:14:23;;;;;;;15.70;8.68;;;;;;;;;;5003456;28;20490;-69
2023/02/16 02:16:56;;;;;;;18.67;7.43;;;;;;;;;;5005897;28;20495;-68
2023/02/16 02:19:22;;;;;;;17.00;8.02;;;;;;;;;;5003463;28;20034;-69
2023/02/16 02:25:12;;;;;;;13.45;7.40;;;;;;;;;;4993740;28;20027;-69
2023/02/16 02:27:39;;;;;;;16.23;8.25;;;;;;;;;;5004028;28;20026;-68
2023/02/16 02:30:32;;;;;;;16.02;7.97;;;;;;;;;;5008311;28;20108;-70
2023/02/16 02:33:11;;;;;;;14.57;8.10;;;;;;;;;;5004268;28;20452;-72
2023/02/16 02:35:39;;;;;;;15.60;8.43;;;;;;;;;;5002820;28;20018;-72
2023/02/16 02:38:11;;;;;;;19.05;8.25;;;;;;;;;;5002687;28;20029;-72
2023/02/16 02:40:55;;;;;;;17.58;7.65;;;;;;;;;;5002880;28;20017;-72
2023/02/16 02:43:32;;;;;;;15.57;8.43;;;;;;;;;;5012665;28;20452;-74
2023/02/16 02:45:57;;;;;;;16.40;8.35;;;;;;;;;;5005248;28;20053;-73
2023/02/16 02:48:22;;;;;;;16.15;7.68;;;;;;;;;;5002176;28;20026;-78
2023/02/16 03:02:23;;;;;;;13.68;7.82;;;;;;;;;;5006882;28;20042;-68
2023/02/16 03:04:49;;;;;;;17.48;9.43;;;;;;;;;;5004129;28;20117;-68
2023/02/16 03:07:15;;;;;;;16.35;8.38;;;;;;;;;;5001392;28;20022;-75
2023/02/16 03:09:40;;;;;;;15.57;8.85;;;;;;;;;;5010788;28;20498;-69
2023/02/16 03:14:56;;;;;;;16.35;8.23;;;;;;;;;;5002469;28;20029;-71
2023/02/16 03:31:09;;;;;;;14.57;8.70;;;;;;;;;;4999238;28;20030;-73
2023/02/16 03:33:35;;;;;;;14.32;7.38;;;;;;;;;;5012611;28;20469;-72
2023/02/16 03:36:00;;;;;;;14.20;7.50;;;;;;;;;;5007392;28;20076;-72
2023/02/16 03:38:26;;;;;;;13.45;6.80;;;;;;;;;;5003850;28;20357;-73
2023/02/16 03:40:52;;;;;;;13.32;7.55;;;;;;;;;;5002600;28;20507;-73
2023/02/16 03:43:17;;;;;;;13.88;6.82;;;;;;;;;;4995442;28;20104;-72
2023/02/16 03:45:43;;;;;;;12.95;7.35;;;;;;;;;;4998027;28;20112;-72
2023/02/16 03:48:08;;;;;;;13.70;7.57;;;;;;;;;;5006935;28;20032;-72
2023/02/16 03:50:34;;;;;;;15.82;8.02;;;;;;;;;;5007015;28;20065;-71
2023/02/16 03:53:08;;;;;;;13.47;6.17;;;;;;;;;;4997713;28;20017;-74
2023/02/16 03:55:43;;;;;;;12.45;7.55;;;;;;;;;;5000766;28;20763;-74
2023/02/16 03:58:10;;;;;;;12.80;7.20;;;;;;;;;;4999404;28;20025;-73
2023/02/16 04:00:35;;;;;;;12.45;7.00;;;;;;;;;;5006278;28;20022;-72
2023/02/16 04:03:01;;;;;;;13.20;7.55;;;;;;;;;;5004135;28;20029;-71
2023/02/16 04:05:27;;;;;;;14.65;7.90;;;;;;;;;;5013990;28;20041;-73
2023/02/16 04:07:52;;;;;;;14.85;7.85;;;;;;;;;;5005758;28;20101;-73
2023/02/16 04:10:17;;;;;;;11.70;6.43;;;;;;;;;;5001197;28;20056;-75
2023/02/16 04:12:42;;;;;;;12.70;7.10;;;;;;;;;;5003170;28;20265;-76
2023/02/16 04:15:09;;;;;;;12.73;7.03;;;;;;;;;;5000969;28;20022;-73
2023/02/16 04:17:34;;;;;;;12.15;7.20;;;;;;;;;;5008003;28;20046;-75
2023/02/16 04:19:59;;;;;;;14.00;6.68;;;;;;;;;;4997546;28;20048;-75
2023/02/16 04:22:25;;;;;;;15.80;6.65;;;;;;;;;;5000204;28;20068;-69
2023/02/16 04:24:50;;;;;;;12.02;6.40;;;;;;;;;;5000583;28;20049;-69
2023/02/16 04:27:15;;;;;;;12.97;6.40;;;;;;;;;;5004107;28;20448;-70
2023/02/16 04:29:40;;;;;;;21.07;8.27;;;;;;;;;;5009736;28;20752;-67
2023/02/16 04:32:06;;;;;;;11.40;6.70;;;;;;;;;;5005745;28;20268;-70
2023/02/16 04:34:31;;;;;;;17.02;8.30;;;;;;;;;;5003427;28;20295;-72
2023/02/16 04:36:56;;;;;;;13.47;6.90;;;;;;;;;;5008754;28;20539;-69
2023/02/16 04:39:21;;;;;;;17.65;7.75;;;;;;;;;;5006356;28;20346;-72
2023/02/16 04:41:47;;;;;;;13.27;7.25;;;;;;;;;;5007018;28;20030;-75
2023/02/16 04:44:12;;;;;;;15.30;6.50;;;;;;;;;;5005380;28;20018;-75
2023/02/16 04:46:37;;;;;;;13.90;7.57;;;;;;;;;;5001059;28;20292;-75
2023/02/16 04:49:02;;;;;;;15.20;7.40;;;;;;;;;;5004640;28;20715;-77
2023/02/16 04:51:27;;;;;;;12.33;6.97;;;;;;;;;;5003387;28;20622;-77
2023/02/16 04:53:53;;;;;;;14.20;7.23;;;;;;;;;;5002538;28;20857;-75
2023/02/16 04:56:18;;;;;;;12.80;7.00;;;;;;;;;;4999481;28;20964;-68
2023/02/16 04:58:43;;;;;;;11.67;7.00;;;;;;;;;;5001891;28;20853;-72
2023/02/16 05:01:08;;;;;;;12.87;7.40;;;;;;;;;;5003840;28;20260;-71
2023/02/16 05:03:33;;;;;;;14.13;7.53;;;;;;;;;;5004888;28;20288;-70
2023/02/16 05:05:59;;;;;;;13.45;7.40;;;;;;;;;;4999754;28;20420;-68
2023/02/16 05:08:24;;;;;;;14.43;7.30;;;;;;;;;;5003941;28;20371;-72
2023/02/16 05:14:40;;;;;;;12.70;6.77;;;;;;;;;;5005300;28;20026;-70
2023/02/16 05:16:20;;;;;;;15.45;6.97;;;;;;;;;;4998996;28;20030;-72
2023/02/16 05:18:45;;;;;;;13.10;6.80;;;;;;;;;;5003671;28;20025;-70
2023/02/16 05:23:54;;;;;;;15.82;8.13;;;;;;;;;;4991003;28;20281;-68
2023/02/16 05:26:19;;;;;;;15.33;7.30;;;;;;;;;;4995732;28;20049;-66
2023/02/16 05:28:44;;;;;;;14.07;7.53;;;;;;;;;;4995556;28;20745;-70
2023/02/16 05:31:09;;;;;;;15.40;7.97;;;;;;;;;;5002205;28;20794;-68
2023/02/16 05:33:34;;;;;;;16.03;8.57;;;;;;;;;;5000332;28;20277;-73
2023/02/16 05:36:00;;;;;;;13.87;7.67;;;;;;;;;;4996596;28;20169;-72
2023/02/16 05:38:25;;;;;;;13.30;7.40;;;;;;;;;;4999191;28;20636;-72
2023/02/16 05:40:50;;;;;;;19.45;8.00;;;;;;;;;;5010386;28;20582;-70
2023/02/16 05:43:15;;;;;;;11.80;6.90;;;;;;;;;;4996768;28;20469;-73
2023/02/16 05:45:41;;;;;;;17.83;8.60;;;;;;;;;;4995277;28;20396;-71
2023/02/16 05:48:06;;;;;;;17.53;8.17;;;;;;;;;;5002065;28;20300;-71
2023/02/16 05:50:31;;;;;;;17.20;7.70;;;;;;;;;;5006580;28;20283;-71
2023/02/16 05:52:56;;;;;;;14.02;7.82;;;;;;;;;;5004808;28;20269;-73
2023/02/16 05:55:21;;;;;;;15.33;7.93;;;;;;;;;;5002676;28;20073;-69
2023/02/16 05:57:47;;;;;;;16.02;9.15;;;;;;;;;;5003358;28;20309;-67
2023/02/16 06:00:12;;;;;;;14.40;8.07;;;;;;;;;;5001293;28;20506;-64
2023/02/16 06:02:37;;;;;;;15.77;8.15;;;;;;;;;;5015348;28;20271;-68
2023/02/16 06:05:03;;;;;;;18.77;8.10;;;;;;;;;;5009312;28;20025;-68
2023/02/16 06:07:28;;;;;;;16.65;8.88;;;;;;;;;;5007270;28;20698;-68
2023/02/16 06:09:53;;;;;;;15.43;8.67;;;;;;;;;;5010342;28;20021;-71
2023/02/16 06:12:18;;;;;;;18.50;8.43;;;;;;;;;;5014057;28;20305;-66
2023/02/16 06:14:43;;;;;;;18.80;9.77;;;;;;;;;;5007541;28;20418;-72
2023/02/16 06:17:09;;;;;;;18.55;8.57;;;;;;;;;;5011684;28;20269;-69
2023/02/16 06:19:34;;;;;;;16.85;7.80;;;;;;;;;;5006041;28;20019;-69
2023/02/16 06:21:59;;;;;;;19.00;8.17;;;;;;;;;;5007588;28;20029;-71
2023/02/16 06:24:24;;;;;;;17.33;8.70;;;;;;;;;;5007084;28;20268;-70
2023/02/16 06:26:49;;;;;;;15.53;8.07;;;;;;;;;;5010253;28;20278;-70
2023/02/16 06:29:15;;;;;;;16.77;8.10;;;;;;;;;;5004286;28;20285;-72
2023/02/16 06:31:40;;;;;;;13.30;7.50;;;;;;;;;;5010867;28;20608;-69
2023/02/16 06:34:05;;;;;;;17.95;8.95;;;;;;;;;;5007011;28;20265;-69
2023/02/16 06:36:30;;;;;;;15.68;8.63;;;;;;;;;;5010951;28;20581;-69
2023/02/16 06:38:56;;;;;;;19.00;9.88;;;;;;;;;;5011473;28;20026;-68
2023/02/16 06:41:30;;;;;;;16.77;8.33;;;;;;;;;;5012066;28;20057;-68
2023/02/16 06:43:58;;;;;;;13.57;7.40;;;;;;;;;;5013912;28;20283;-68
2023/02/16 06:46:24;;;;;;;20.03;8.23;;;;;;;;;;5014330;28;20525;-71
2023/02/16 06:48:49;;;;;;;19.95;7.72;;;;;;;;;;5009992;28;20050;-65
2023/02/16 06:51:18;;;;;;;15.20;8.37;;;;;;;;;;4997438;28;20139;-73
2023/02/16 06:53:43;;;;;;;19.27;9.60;;;;;;;;;;5007608;28;20277;-73
2023/02/16 06:56:08;;;;;;;18.13;8.80;;;;;;;;;;5002377;28;20429;-70
2023/02/16 06:58:33;;;;;;;18.80;9.97;;;;;;;;;;5006613;28;20834;-73
2023/02/16 07:00:58;;;;;;;16.67;8.00;;;;;;;;;;5011276;28;20269;-71
2023/02/16 07:03:24;;;;;;;18.17;8.60;;;;;;;;;;5002037;28;20272;-71
2023/02/16 07:05:49;;;;;;;15.07;7.80;;;;;;;;;;4997518;28;20370;-73
2023/02/16 07:08:14;;;;;;;15.35;8.23;;;;;;;;;;5007067;28;20328;-72
2023/02/16 07:10:43;;;;;;;18.08;8.38;;;;;;;;;;5009084;28;20034;-74
2023/02/16 07:13:09;;;;;;;17.13;8.02;;;;;;;;;;5007778;28;20429;-73
2023/02/16 07:15:34;;;;;;;15.23;7.77;;;;;;;;;;5008566;28;20077;-74
2023/02/16 07:17:59;;;;;;;17.60;9.38;;;;;;;;;;5002188;28;20276;-71
2023/02/16 07:20:25;;;;;;;14.32;7.03;;;;;;;;;;5003811;28;20477;-72
2023/02/16 07:22:51;;;;;;;18.13;8.73;;;;;;;;;;5000698;28;20026;-73
2023/02/16 07:25:16;;;;;;;18.53;9.70;;;;;;;;;;4997131;28;20045;-72
2023/02/16 07:27:41;;;;;;;16.95;9.30;;;;;;;;;;5005624;28;20590;-72
2023/02/16 07:30:07;;;;;;;18.60;9.05;;;;;;;;;;5007265;28;20034;-75
2023/02/16 07:32:33;;;;;;;18.02;9.05;;;;;;;;;;5006892;28;20049;-73
2023/02/16 07:34:58;;;;;;;16.23;9.20;;;;;;;;;;5007072;28;20046;-72
2023/02/16 07:37:24;;;;;;;15.85;9.05;;;;;;;;;;5010288;28;20041;-74
2023/02/16 07:39:49;;;;;;;18.48;8.98;;;;;;;;;;4999786;28;20022;-72
2023/02/16 07:42:14;;;;;;;17.47;9.53;;;;;;;;;;5001621;28;20033;-74
2023/02/16 07:44:40;;;;;;;17.30;8.80;;;;;;;;;;5014215;28;20272;-72
2023/02/16 07:47:05;;;;;;;17.87;9.10;;;;;;;;;;5012780;28;20164;-73
2023/02/16 07:49:30;;;;;;;19.67;8.82;;;;;;;;;;5013526;28;20355;-72
2023/02/16 07:51:55;;;;;;;16.55;9.73;;;;;;;;;;5009842;28;20569;-73
2023/02/16 07:54:20;;;;;;;17.77;9.03;;;;;;;;;;5015003;28;20028;-75
2023/02/16 07:56:46;;;;;;;20.75;8.65;;;;;;;;;;5012654;28;20664;-74
2023/02/16 07:59:13;;;;;;;15.98;8.90;;;;;;;;;;5004582;28;20030;-74
2023/02/16 08:01:40;;;;;;;21.08;8.80;;;;;;;;;;5005600;28;20018;-70
2023/02/16 08:04:06;;;;;;;18.05;10.18;;;;;;;;;;5005755;28;20022;-69
2023/02/16 08:06:32;;;;;;;21.60;11.02;;;;;;;;;;5003728;28;20547;-70
2023/02/16 08:08:58;;;;;;;18.38;9.73;;;;;;;;;;5013676;28;20404;-69
2023/02/16 08:11:24;;;;;;;22.10;9.13;;;;;;;;;;5011864;28;20041;-69
2023/02/16 08:13:49;;;;;;;25.95;10.57;;;;;;;;;;5009355;28;20286;-72
2023/02/16 08:16:17;;;;;;;16.27;8.85;;;;;;;;;;4999764;28;20086;-72
2023/02/16 08:18:42;;;;;;;18.60;7.93;;;;;;;;;;5003741;28;20101;-73
2023/02/16 08:21:12;;;;;;;17.65;8.63;;;;;;;;;;5014937;28;20033;-75
2023/02/16 08:23:38;;;;;;;17.65;9.75;;;;;;;;;;5001890;28;20108;-73
2023/02/16 08:26:08;;;;;;;18.50;9.60;;;;;;;;;;5009428;28;20650;-72
2023/02/16 08:28:36;;;;;;;21.38;9.60;;;;;;;;;;5000774;28;20413;-71
2023/02/16 08:31:02;;;;;;;18.45;9.05;;;;;;;;;;5004399;28;20389;-72
2023/02/16 08:33:28;;;;;;;19.90;10.82;;;;;;;;;;5010931;28;20032;-72
2023/02/16 08:35:53;;;;;;;20.10;10.17;;;;;;;;;;5011962;28;20025;-72
2023/02/16 08:38:19;;;;;;;19.30;9.60;;;;;;;;;;5005563;28;20300;-72
2023/02/16 08:40:48;;;;;;;21.10;10.52;;;;;;;;;;5014907;28;20273;-73
2023/02/16 08:43:13;;;;;;;17.30;9.23;;;;;;;;;;5013149;28;20021;-72
2023/02/16 08:45:42;;;;;;;17.60;9.23;;;;;;;;;;5007647;28;20044;-75
2023/02/16 08:48:08;;;;;;;15.70;9.18;;;;;;;;;;5005221;28;20321;-73
2023/02/16 08:50:35;;;;;;;17.70;9.60;;;;;;;;;;5007079;28;20033;-73
2023/02/16 08:53:01;;;;;;;18.88;9.77;;;;;;;;;;5020610;28;20025;-74
2023/02/16 08:55:26;;;;;;;17.90;9.55;;;;;;;;;;5003006;28;20018;-68
2023/02/16 08:57:51;;;;;;;20.55;10.93;;;;;;;;;;5005136;28;20084;-71
2023/02/16 09:00:37;;;;;;;19.60;9.70;;;;;;;;;;5006986;28;20365;-70
2023/02/16 09:03:03;;;;;;;20.88;9.68;;;;;;;;;;5003322;28;20262;-72
2023/02/16 09:05:28;;;;;;;17.67;9.75;;;;;;;;;;5012514;28;20040;-67
2023/02/16 09:07:53;;;;;;;21.10;9.88;;;;;;;;;;5006257;28;20128;-68
2023/02/16 09:10:21;;;;;;;21.75;9.95;;;;;;;;;;5000042;28;20046;-71
2023/02/16 09:12:48;;;;;;;18.27;9.40;;;;;;;;;;5010301;28;20117;-70
2023/02/16 09:15:14;;;;;;;18.52;9.50;;;;;;;;;;5005644;28;20034;-70
2023/02/16 09:17:41;;;;;;;18.90;11.02;;;;;;;;;;5000103;28;20446;-76
2023/02/16 09:20:06;;;;;;;16.73;9.38;;;;;;;;;;5008289;28;20024;-72
2023/02/16 09:22:32;;;;;;;20.10;9.82;;;;;;;;;;5010993;28;20105;-74
2023/02/16 09:24:57;;;;;;;21.73;11.03;;;;;;;;;;5013460;28;20034;-73
2023/02/16 09:27:22;;;;;;;17.40;10.07;;;;;;;;;;5006843;28;20273;-74
2023/02/16 09:29:48;;;;;;;16.35;9.43;;;;;;;;;;5009551;28;20499;-74
2023/02/16 09:32:14;;;;;;;17.23;10.23;;;;;;;;;;5010798;28;20113;-70
2023/02/16 09:34:39;;;;;;;19.17;9.50;;;;;;;;;;5002061;28;20100;-71
2023/02/16 09:37:04;;;;;;;21.60;10.10;;;;;;;;;;5011451;28;20107;-70
2023/02/16 09:39:30;;;;;;;16.30;9.13;;;;;;;;;;5008667;28;20130;-73
2023/02/16 09:41:58;;;;;;;19.30;8.13;;;;;;;;;;5013264;28;20108;-69
2023/02/16 09:44:36;;;;;;;17.35;8.70;;;;;;;;;;5009544;28;20268;-69
2023/02/16 09:47:04;;;;;;;14.85;8.98;;;;;;;;;;5013940;28;20045;-72
2023/02/16 09:49:34;;;;;;;15.88;7.40;;;;;;;;;;5009075;28;20146;-70
2023/02/16 09:52:17;;;;;;;14.90;8.00;;;;;;;;;;5012410;28;20045;-72
2023/02/16 09:54:48;;;;;;;15.68;7.93;;;;;;;;;;5012355;28;20026;-72
2023/02/16 09:57:28;;;;;;;14.93;8.48;;;;;;;;;;5022849;28;20333;-71
2023/02/16 09:59:54;;;;;;;18.20;8.13;;;;;;;;;;5015800;28;20053;-72
2023/02/16 10:02:31;;;;;;;17.80;7.90;;;;;;;;;;5015651;28;20032;-73
2023/02/16 10:05:03;;;;;;;13.07;7.15;;;;;;;;;;5016303;28;20025;-71
2023/02/16 10:07:38;;;;;;;12.45;6.25;;;;;;;;;;5018569;28;20485;-71
2023/02/16 10:10:05;;;;;;;12.15;6.80;;;;;;;;;;5020012;28;20502;-68
2023/02/16 10:12:32;;;;;;;12.50;6.78;;;;;;;;;;5013215;28;20033;-71
2023/02/16 10:15:11;;;;;;;19.63;7.63;;;;;;;;;;5010510;28;20053;-70
2023/02/16 10:17:37;;;;;;;10.82;6.10;;;;;;;;;;5004432;28;20021;-70
2023/02/16 10:20:15;;;;;;;12.57;7.55;;;;;;;;;;5018111;28;20388;-71
2023/02/16 10:22:48;;;;;;;11.00;6.55;;;;;;;;;;5012366;28;20021;-70
2023/02/16 10:25:22;;;;;;;9.65;5.82;;;;;;;;;;5007922;28;20041;-70
2023/02/16 10:27:51;;;;;;;12.23;6.22;;;;;;;;;;5019737;28;20022;-70
2023/02/16 10:30:21;;;;;;;9.98;5.88;;;;;;;;;;5006121;28;20091;-73
2023/02/16 10:32:56;;;;;;;12.57;6.25;;;;;;;;;;5007114;28;20029;-73
2023/02/16 10:35:42;;;;;;;10.52;5.35;;;;;;;;;;5004457;28;20437;-71
2023/02/16 10:38:14;;;;;;;9.43;4.63;;;;;;;;;;5004087;28;20030;-71
2023/02/16 10:40:39;;;;;;;8.68;5.38;;;;;;;;;;5008561;28;20025;-72
2023/02/16 10:43:23;;;;;;;9.23;5.10;;;;;;;;;;5011440;28;20056;-72
2023/02/16 10:45:49;;;;;;;12.23;6.47;;;;;;;;;;4994699;28;20493;-70
2023/02/16 10:48:15;;;;;;;8.77;4.90;;;;;;;;;;5007280;28;20025;-71
2023/02/16 10:50:40;;;;;;;10.68;5.95;;;;;;;;;;5006617;28;20539;-69
2023/02/16 10:53:09;;;;;;;12.48;5.13;;;;;;;;;;5011595;28;20088;-71
2023/02/16 10:55:36;;;;;;;8.68;5.47;;;;;;;;;;5010277;28;20116;-71
2023/02/16 10:58:01;;;;;;;10.82;5.15;;;;;;;;;;5015558;28;20026;-70
2023/02/16 11:00:33;;;;;;;10.32;5.43;;;;;;;;;;5013071;28;20065;-71
2023/02/16 11:03:01;;;;;;;9.50;4.80;;;;;;;;;;5006703;28;20045;-70
2023/02/16 11:05:37;;;;;;;11.07;5.40;;;;;;;;;;5015483;28;20026;-71
2023/02/16 11:08:03;;;;;;;14.35;6.32;;;;;;;;;;5024592;28;20079;-71
2023/02/16 11:10:36;;;;;;;11.57;5.22;;;;;;;;;;5017819;28;20052;-69
2023/02/16 11:13:02;;;;;;;11.80;6.40;;;;;;;;;;5012994;28;20477;-70
2023/02/16 11:15:28;;;;;;;9.80;4.95;;;;;;;;;;5010607;28;20025;-72
2023/02/16 11:17:58;;;;;;;13.70;5.80;;;;;;;;;;5010547;28;20746;-71
2023/02/16 11:20:44;;;;;;;11.10;4.90;;;;;;;;;;5013280;28;20588;-72
2023/02/16 11:23:23;;;;;;;9.25;4.32;;;;;;;;;;5006107;28;20044;-73
2023/02/16 11:25:56;;;;;;;11.23;4.85;;;;;;;;;;5009612;28;20033;-73
2023/02/16 11:28:36;;;;;;;12.02;4.30;;;;;;;;;;5013633;28;20568;-72
2023/02/16 11:31:10;;;;;;;7.82;4.65;;;;;;;;;;5016879;28;20088;-74
2023/02/16 11:33:36;;;;;;;6.82;4.07;;;;;;;;;;5020257;28;20053;-74
2023/02/16 11:36:04;;;;;;;8.02;4.43;;;;;;;;;;5009426;28;20022;-74
2023/02/16 11:38:34;;;;;;;10.02;4.40;;;;;;;;;;5002463;28;20100;-73
2023/02/16 11:41:00;;;;;;;9.60;4.55;;;;;;;;;;5007201;28;20108;-71
2023/02/16 11:43:27;;;;;;;11.68;5.15;;;;;;;;;;5006676;28;20022;-78
2023/02/16 11:45:58;;;;;;;10.82;4.75;;;;;;;;;;5005833;28;20097;-71
2023/02/16 11:48:26;;;;;;;11.75;5.15;;;;;;;;;;5005007;28;20038;-70
2023/02/16 11:50:59;;;;;;;9.23;5.00;;;;;;;;;;5004289;28;20022;-71
2023/02/16 11:53:31;;;;;;;11.65;5.05;;;;;;;;;;5008244;28;20022;-72
2023/02/16 11:56:16;;;;;;;9.88;4.38;;;;;;;;;;5009964;28;20029;-74
2023/02/16 11:58:41;;;;;;;9.38;5.15;;;;;;;;;;5009305;28;20100;-71
2023/02/16 12:01:20;;;;;;;8.48;4.55;;;;;;;;;;5005557;28;20117;-69
2023/02/16 12:03:58;;;;;;;7.90;5.03;;;;;;;;;;5009838;28;20021;-66
2023/02/16 12:06:30;;;;;;;7.32;4.55;;;;;;;;;;5003249;28;20041;-69
2023/02/16 12:08:55;;;;;;;7.53;4.10;;;;;;;;;;5000806;28;20026;-71
2023/02/16 12:11:27;;;;;;;8.00;4.43;;;;;;;;;;5008055;28;20414;-68
2023/02/16 12:14:10;;;;;;;11.75;3.97;;;;;;;;;;5001844;28;20029;-67
2023/02/16 12:16:42;;;;;;;6.68;4.10;;;;;;;;;;5004205;28;20041;-67
2023/02/16 12:19:07;;;;;;;9.85;4.90;;;;;;;;;;5005023;28;20468;-65
2023/02/16 12:21:39;;;;;;;8.40;5.07;;;;;;;;;;5008874;28;20112;-73
2023/02/16 12:24:25;;;;;;;8.50;3.88;;;;;;;;;;5006598;28;20026;-66
2023/02/16 12:26:56;;;;;;;10.50;4.65;;;;;;;;;;5003309;28;20048;-68
2023/02/16 12:29:21;;;;;;;6.35;3.83;;;;;;;;;;5003722;28;20021;-71
2023/02/16 12:32:05;;;;;;;11.77;4.10;;;;;;;;;;5008460;28;20042;-69
2023/02/16 12:34:45;;;;;;;8.77;4.13;;;;;;;;;;5004210;28;20276;-70
2023/02/16 12:37:11;;;;;;;6.53;3.83;;;;;;;;;;5013285;28;20471;-71
2023/02/16 12:39:42;;;;;;;7.50;3.87;;;;;;;;;;5009828;28;20096;-68
2023/02/16 12:42:10;;;;;;;10.40;3.90;;;;;;;;;;5007594;28;20101;-71
2023/02/16 12:44:56;;;;;;;7.90;4.80;;;;;;;;;;5006406;28;20543;-67
2023/02/16 12:47:27;;;;;;;16.35;6.93;;;;;;;;;;5011767;28;20026;-68
2023/02/16 12:49:55;;;;;;;16.40;7.45;;;;;;;;;;5006434;28;20412;-65
2023/02/16 12:52:21;;;;;;;11.82;5.97;;;;;;;;;;5006272;28;20059;-68
2023/02/16 12:54:53;;;;;;;10.93;5.50;;;;;;;;;;5004157;28;20022;-67
2023/02/16 12:57:23;;;;;;;14.52;7.70;;;;;;;;;;5008433;28;20028;-66
2023/02/16 12:59:48;;;;;;;12.07;6.25;;;;;;;;;;5008013;28;20044;-69
2023/02/16 13:02:33;;;;;;;15.07;6.80;;;;;;;;;;5002026;28;20481;-70
2023/02/16 13:05:10;;;;;;;12.93;6.97;;;;;;;;;;5008913;28;20029;-69
2023/02/16 13:07:39;;;;;;;11.60;6.47;;;;;;;;;;5006343;28;20037;-70
2023/02/16 13:10:19;;;;;;;13.50;6.78;;;;;;;;;;5000233;28;20011;-67
2023/02/16 13:12:51;;;;;;;14.70;8.30;;;;;;;;;;4999444;28;20121;-72
2023/02/16 13:15:24;;;;;;;13.82;6.70;;;;;;;;;;5003478;28;20029;-72
2023/02/16 13:17:59;;;;;;;17.50;7.45;;;;;;;;;;5001117;28;20057;-73
2023/02/16 13:20:25;;;;;;;10.07;5.43;;;;;;;;;;5002256;28;20026;-72
2023/02/16 13:22:51;;;;;;;13.65;7.05;;;;;;;;;;5005988;28;20096;-71
2023/02/16 13:25:19;;;;;;;15.90;6.50;;;;;;;;;;5002611;28;20025;-70
2023/02/16 13:27:45;;;;;;;13.73;6.18;;;;;;;;;;5001967;28;20018;-73
2023/02/16 13:30:23;;;;;;;11.30;6.40;;;;;;;;;;5005792;28;20169;-69
2023/02/16 13:32:57;;;;;;;18.15;7.07;;;;;;;;;;5006781;28;20045;-70
2023/02/16 13:35:28;;;;;;;12.85;5.65;;;;;;;;;;5007831;28;20409;-68
2023/02/16 13:38:12;;;;;;;12.02;5.90;;;;;;;;;;5003472;28;20450;-72
2023/02/16 13:41:06;;;;;;;11.75;6.88;;;;;;;;;;5010047;28;20026;-72
2023/02/16 13:43:36;;;;;;;16.90;7.03;;;;;;;;;;4982846;28;20045;-70
2023/02/16 13:46:05;;;;;;;16.48;6.93;;;;;;;;;;5003652;28;20084;-71
2023/02/16 13:48:32;;;;;;;;;;;;;;;;;;5002773;28;20434;-69
2023/02/16 13:51:00;;;;;;;9.77;6.13;;;;;;;;;;5000195;28;19909;-70
2023/02/16 13:53:35;;;;;;;11.95;5.95;;;;;;;;;;5002800;28;20077;-71
2023/02/16 13:56:16;;;;;;;13.48;6.13;;;;;;;;;;5012321;28;20535;-72
2023/02/16 13:58:42;;;;;;;10.48;6.75;;;;;;;;;;5004275;28;20026;-68
2023/02/16 14:01:27;;;;;;;13.88;6.63;;;;;;;;;;5001339;28;20125;-70
2023/02/16 14:03:52;;;;;;;14.32;7.35;;;;;;;;;;4998868;28;20023;-68
2023/02/16 14:06:35;;;;;;;12.30;6.80;;;;;;;;;;4999612;28;20202;-69
2023/02/16 14:09:21;;;;;;;16.08;7.15;;;;;;;;;;5004364;28;20269;-71
2023/02/16 14:11:49;;;;;;;17.70;8.77;;;;;;;;;;5003407;28;20032;-72
2023/02/16 14:14:35;;;;;;;15.98;5.97;;;;;;;;;;5011640;28;20027;-70
2023/02/16 14:17:18;;;;;;;15.15;7.03;;;;;;;;;;5000509;28;20083;-72
2023/02/16 14:20:04;;;;;;;14.10;7.00;;;;;;;;;;5006833;28;20038;-72
2023/02/16 14:22:46;;;;;;;14.40;6.82;;;;;;;;;;5006004;28;20026;-73
2023/02/16 14:25:21;;;;;;;14.02;7.70;;;;;;;;;;5010073;28;20381;-76
2023/02/16 14:27:54;;;;;;;14.05;6.95;;;;;;;;;;4997988;28;20354;-72
2023/02/16 14:30:42;;;;;;;13.50;7.68;;;;;;;;;;5003729;28;20036;-72
2023/02/16 14:33:14;;;;;;;17.65;7.15;;;;;;;;;;5006801;28;20405;-73
2023/02/16 14:35:41;;;;;;;11.68;6.70;;;;;;;;;;5005447;28;20044;-73
2023/02/16 14:38:15;;;;;;;14.50;7.40;;;;;;;;;;5001323;28;20504;-72
2023/02/16 14:40:51;;;;;;;14.98;6.97;;;;;;;;;;5009879;28;20022;-72
2023/02/16 14:43:23;;;;;;;13.88;7.97;;;;;;;;;;5006862;28;20034;-72
2023/02/16 14:45:48;;;;;;;14.00;7.10;;;;;;;;;;5006857;28;20488;-76
2023/02/16 14:48:29;;;;;;;15.00;7.33;;;;;;;;;;5006429;28;20172;-69
2023/02/16 14:51:00;;;;;;;12.95;7.13;;;;;;;;;;5005711;28;20033;-70
2023/02/16 14:53:25;;;;;;;12.13;6.53;;;;;;;;;;5009208;28;20026;-71
2023/02/16 14:55:50;;;;;;;13.77;7.83;;;;;;;;;;5001799;28;20022;-69
2023/02/16 14:58:18;;;;;;;14.63;7.57;;;;;;;;;;5005365;28;20513;-71
2023/02/16 15:00:46;;;;;;;13.80;7.30;;;;;;;;;;5005632;28;20065;-68
2023/02/16 15:03:14;;;;;;;20.83;7.57;;;;;;;;;;5005641;28;20026;-72
2023/02/16 15:05:40;;;;;;;20.55;7.35;;;;;;;;;;5008246;28;20033;-67
2023/02/16 15:08:08;;;;;;;18.10;8.13;;;;;;;;;;5000464;28;20528;-72
2023/02/16 15:10:36;;;;;;;15.90;8.57;;;;;;;;;;5010401;28;20026;-70
2023/02/16 15:13:01;;;;;;;16.00;8.18;;;;;;;;;;5006955;28;20038;-71
2023/02/16 15:15:42;;;;;;;13.75;7.47;;;;;;;;;;5008390;28;20044;-72
2023/02/16 15:18:11;;;;;;;15.38;6.70;;;;;;;;;;5002832;28;20019;-70
2023/02/16 15:20:37;;;;;;;11.43;6.22;;;;;;;;;;5012923;28;20030;-70
2023/02/16 15:23:22;;;;;;;10.18;5.45;;;;;;;;;;5014962;28;20468;-70
2023/02/16 15:25:53;;;;;;;15.63;6.13;;;;;;;;;;5003627;28;20036;-72
2023/02/16 15:28:25;;;;;;;12.95;6.50;;;;;;;;;;5017394;28;20029;-72
2023/02/16 15:31:04;;;;;;;11.90;6.72;;;;;;;;;;5004857;28;20041;-72
2023/02/16 15:33:32;;;;;;;18.27;6.53;;;;;;;;;;5015690;28;20572;-72